Wetterdaten: Woche 16.07.12 - 22.07.12 (KW29)
Datum Zeit Temp. A. Feuchte A. Luftdruck Regen Wind Richtung Taupunkt Windchill Windben
16.07.2012 00:00 16,9 C 67 % 1017,3 hPa 0,0 l/m 13,4 km/h N 10,8 C 14,0 C 32,2 km/h
16.07.2012 01:00 16,8 C 66 % 1017,8 hPa 0,0 l/m 13,5 km/h N 10,4 C 13,8 C 34,2 km/h
16.07.2012 02:00 16,7 C 68 % 1017,9 hPa 0,0 l/m 17,4 km/h N 10,6 C 12,6 C 36,2 km/h
16.07.2012 03:00 16,3 C 69 % 1018,1 hPa 0,0 l/m 9,5 km/h N 10,6 C 14,8 C 24,6 km/h
16.07.2012 04:00 16,0 C 71 % 1019,1 hPa 0,0 l/m 12,0 km/h N 10,7 C 13,5 C 29,8 km/h
16.07.2012 05:00 15,6 C 70 % 1019,7 hPa 0,0 l/m 10,4 km/h N 10,1 C 13,7 C 29,0 km/h
16.07.2012 06:00 15,4 C 70 % 1020,1 hPa 0,0 l/m 10,8 km/h N 9,9 C 13,3 C 30,2 km/h
16.07.2012 07:00 15,6 C 70 % 1020,5 hPa 0,0 l/m 10,3 km/h N 10,1 C 13,8 C 25,4 km/h
16.07.2012 08:00 16,4 C 68 % 1021,3 hPa 0,0 l/m 10,3 km/h N 10,4 C 14,6 C 27,8 km/h
16.07.2012 09:00 17,3 C 66 % 1021,7 hPa 0,0 l/m 11,2 km/h N 10,8 C 15,3 C 31,8 km/h
16.07.2012 10:00 18,6 C 61 % 1021,9 hPa 0,0 l/m 6,6 km/h N 11,0 C 18,1 C 27,0 km/h
16.07.2012 11:00 18,1 C 62 % 1022,3 hPa 0,0 l/m 10,5 km/h N 10,7 C 16,4 C 32,2 km/h
16.07.2012 12:00 18,6 C 61 % 1022,5 hPa 0,0 l/m 11,4 km/h N 10,9 C 16,6 C 32,2 km/h
16.07.2012 13:00 18,8 C 61 % 1022,4 hPa 0,0 l/m 0,6 km/h N 11,1 C 18,8 C 11,7 km/h
16.07.2012 14:00 20,0 C 58 % 1022,0 hPa 0,0 l/m 6,2 km/h N 11,4 C 19,5 C 21,8 km/h
16.07.2012 15:00 19,8 C 56 % 1022,0 hPa 0,0 l/m 10,7 km/h N 10,6 C 18,2 C 29,0 km/h
16.07.2012 16:00 19,9 C 54 % 1022,2 hPa 0,0 l/m 10,4 km/h N 10,2 C 18,4 C 31,0 km/h
16.07.2012 17:00 20,4 C 55 % 1022,3 hPa 0,0 l/m 8,1 km/h N 11,0 C 19,3 C 27,0 km/h
16.07.2012 18:00 18,4 C 62 % 1022,8 hPa 0,0 l/m 7,5 km/h N 10,9 C 17,7 C 21,3 km/h
16.07.2012 19:00 18,3 C 62 % 1022,8 hPa 0,0 l/m 5,8 km/h N 10,7 C 18,1 C 15,7 km/h
16.07.2012 20:00 17,3 C 64 % 1023,0 hPa 0,0 l/m 1,3 km/h N 10,4 C 17,3 C 6,8 km/h
16.07.2012 21:00 16,0 C 67 % 1023,6 hPa 0,0 l/m 0,0 km/h N 9,9 C 16,0 C 0,0 km/h
16.07.2012 22:00 13,9 C 75 % 1023,9 hPa 0,0 l/m 0,0 km/h N 9,4 C 13,9 C 0,0 km/h
16.07.2012 23:00 12,3 C 80 % 1024,1 hPa 0,0 l/m 0,0 km/h N 8,9 C 12,3 C 0,0 km/h
17.07.2012 00:00 11,3 C 82 % 1024,2 hPa 0,0 l/m 0,0 km/h N 8,4 C 11,3 C 0,0 km/h
17.07.2012 01:00 10,9 C 82 % 1024,0 hPa 0,0 l/m 0,0 km/h N 8,0 C 10,9 C 0,0 km/h
17.07.2012 02:00 11,7 C 81 % 1023,8 hPa 0,0 l/m 0,0 km/h N 8,6 C 11,7 C 0,4 km/h
17.07.2012 03:00 12,3 C 83 % 1023,3 hPa 0,0 l/m 0,0 km/h N 9,4 C 12,3 C 1,2 km/h
17.07.2012 04:00 12,0 C 83 % 1022,8 hPa 0,0 l/m 0,0 km/h N 9,3 C 12,0 C 0,0 km/h
17.07.2012 05:00 12,7 C 83 % 1022,3 hPa 0,0 l/m 0,0 km/h N 9,8 C 12,7 C 1,2 km/h
17.07.2012 06:00 13,2 C 81 % 1022,0 hPa 0,0 l/m 0,0 km/h N 10,0 C 13,2 C 0,4 km/h
17.07.2012 07:00 14,4 C 79 % 1021,5 hPa 0,0 l/m 0,1 km/h N 10,8 C 14,4 C 2,8 km/h
17.07.2012 08:00 16,4 C 70 % 1021,4 hPa 0,0 l/m 5,1 km/h N 10,8 C 15,8 C 18,1 km/h
17.07.2012 09:00 18,1 C 61 % 1021,1 hPa 0,0 l/m 12,0 km/h N 10,4 C 15,9 C 37,0 km/h
17.07.2012 10:00 18,6 C 62 % 1020,8 hPa 0,0 l/m 9,3 km/h N 11,2 C 17,4 C 27,0 km/h
17.07.2012 11:00 20,5 C 57 % 1020,3 hPa 0,0 l/m 6,7 km/h N 11,6 C 20,3 C 27,0 km/h
17.07.2012 12:00 20,9 C 56 % 1020,5 hPa 0,0 l/m 8,5 km/h N 11,7 C 20,1 C 30,6 km/h
17.07.2012 13:00 20,6 C 58 % 1020,5 hPa 0,0 l/m 9,6 km/h N 11,9 C 19,4 C 30,6 km/h
17.07.2012 14:00 20,6 C 59 % 1020,4 hPa 0,0 l/m 8,6 km/h N 12,2 C 19,8 C 26,1 km/h
17.07.2012 15:00 20,2 C 61 % 1020,3 hPa 0,0 l/m 9,6 km/h N 12,4 C 19,0 C 24,5 km/h
17.07.2012 16:00 21,0 C 60 % 1020,0 hPa 0,0 l/m 9,9 km/h N 12,9 C 19,8 C 33,4 km/h
17.07.2012 17:00 20,7 C 58 % 1019,7 hPa 0,0 l/m 14,1 km/h N 12,1 C 18,3 C 36,6 km/h
17.07.2012 18:00 20,8 C 58 % 1019,5 hPa 0,0 l/m 12,1 km/h N 12,2 C 18,9 C 36,6 km/h
17.07.2012 19:00 20,1 C 60 % 1019,7 hPa 0,0 l/m 9,4 km/h N 12,1 C 19,0 C 28,6 km/h
17.07.2012 20:00 19,2 C 64 % 1020,0 hPa 0,0 l/m 6,6 km/h N 12,1 C 18,8 C 20,1 km/h
17.07.2012 21:00 18,2 C 67 % 1020,7 hPa 0,0 l/m 3,9 km/h N 12,0 C 18,2 C 16,9 km/h
17.07.2012 22:00 17,9 C 69 % 1020,8 hPa 0,0 l/m 3,3 km/h N 12,0 C 17,9 C 17,3 km/h
17.07.2012 23:00 18,5 C 67 % 1020,9 hPa 0,0 l/m 7,8 km/h N 12,1 C 17,7 C 21,3 km/h
18.07.2012 00:00 18,6 C 67 % 1021,0 hPa 0,0 l/m 7,1 km/h N 12,3 C 18,2 C 21,3 km/h
18.07.2012 01:00 18,7 C 66 % 1021,1 hPa 0,0 l/m 8,0 km/h N 12,2 C 18,0 C 24,9 km/h
18.07.2012 02:00 18,7 C 66 % 1021,1 hPa 0,0 l/m 6,7 km/h N 12,2 C 18,5 C 22,1 km/h
18.07.2012 03:00 18,4 C 65 % 1020,9 hPa 0,0 l/m 6,6 km/h N 11,8 C 18,3 C 19,7 km/h
18.07.2012 04:00 18,2 C 68 % 1020,8 hPa 0,0 l/m 7,0 km/h N 12,1 C 17,6 C 19,7 km/h
18.07.2012 05:00 17,9 C 68 % 1020,8 hPa 0,0 l/m 5,9 km/h N 11,9 C 17,5 C 17,7 km/h
18.07.2012 06:00 17,4 C 69 % 1020,6 hPa 0,0 l/m 4,5 km/h N 11,6 C 17,4 C 16,1 km/h
18.07.2012 07:00 17,9 C 67 % 1020,9 hPa 0,0 l/m 9,6 km/h N 11,6 C 16,5 C 27,4 km/h
18.07.2012 08:00 18,5 C 65 % 1020,8 hPa 0,0 l/m 9,5 km/h N 11,8 C 17,2 C 25,0 km/h
18.07.2012 09:00 20,3 C 62 % 1020,6 hPa 0,0 l/m 7,9 km/h N 12,6 C 19,7 C 24,9 km/h
18.07.2012 10:00 21,3 C 58 % 1020,1 hPa 0,0 l/m 8,6 km/h N 12,7 C 20,5 C 23,7 km/h
18.07.2012 11:00 21,6 C 57 % 1019,7 hPa 0,0 l/m 9,6 km/h N 12,7 C 20,6 C 27,0 km/h
18.07.2012 12:00 21,3 C 61 % 1019,5 hPa 0,0 l/m 8,5 km/h N 13,4 C 20,5 C 24,9 km/h
18.07.2012 13:00 22,0 C 62 % 1019,0 hPa 0,0 l/m 6,9 km/h N 14,3 C 21,5 C 23,0 km/h
18.07.2012 14:00 22,9 C 58 % 1018,1 hPa 0,0 l/m 9,1 km/h N 14,3 C 22,1 C 25,3 km/h
18.07.2012 15:00 24,3 C 54 % 1017,3 hPa 0,0 l/m 8,7 km/h N 14,3 C 23,7 C 25,4 km/h
18.07.2012 16:00 24,8 C 50 % 1016,5 hPa 0,0 l/m 7,1 km/h N 13,7 C 24,6 C 23,3 km/h
18.07.2012 17:00 25,5 C 50 % 1015,7 hPa 0,0 l/m 4,2 km/h N 14,3 C 25,5 C 16,5 km/h
18.07.2012 18:00 26,1 C 49 % 1014,9 hPa 0,0 l/m 3,3 km/h N 14,6 C 26,1 C 13,7 km/h
18.07.2012 19:00 26,3 C 49 % 1014,5 hPa 0,0 l/m 0,4 km/h N 14,7 C 26,3 C 4,8 km/h
18.07.2012 20:00 24,7 C 52 % 1014,2 hPa 0,0 l/m 1,0 km/h N 14,1 C 24,7 C 6,4 km/h
18.07.2012 21:00 21,9 C 60 % 1014,0 hPa 0,0 l/m 0,2 km/h N 13,8 C 21,9 C 2,0 km/h
18.07.2012 22:00 20,6 C 64 % 1013,6 hPa 0,0 l/m 0,9 km/h N 13,4 C 20,6 C 5,2 km/h
18.07.2012 23:00 19,7 C 68 % 1013,2 hPa 0,0 l/m 2,1 km/h N 13,6 C 19,7 C 8,1 km/h
19.07.2012 00:00 18,8 C 70 % 1012,6 hPa 0,0 l/m 0,2 km/h N 13,3 C 18,8 C 2,0 km/h
19.07.2012 01:00 16,5 C 78 % 1012,3 hPa 0,0 l/m 0,0 km/h N 12,6 C 16,5 C 0,0 km/h
19.07.2012 02:00 15,4 C 82 % 1012,1 hPa 0,0 l/m 0,1 km/h N 12,2 C 15,4 C 2,0 km/h
19.07.2012 03:00 15,0 C 82 % 1011,5 hPa 0,0 l/m 0,0 km/h N 11,9 C 15,0 C 1,6 km/h
19.07.2012 04:00 15,3 C 82 % 1011,4 hPa 0,0 l/m 0,0 km/h N 12,3 C 15,3 C 0,0 km/h
19.07.2012 05:00 15,3 C 82 % 1011,2 hPa 0,0 l/m 0,2 km/h N 12,2 C 15,3 C 1,6 km/h
19.07.2012 06:00 16,0 C 82 % 1011,3 hPa 0,0 l/m 0,2 km/h N 12,8 C 16,0 C 4,0 km/h
19.07.2012 07:00 17,3 C 80 % 1011,0 hPa 0,0 l/m 0,7 km/h N 13,9 C 17,3 C 4,0 km/h
19.07.2012 08:00 19,1 C 75 % 1011,1 hPa 0,0 l/m 0,7 km/h N 14,6 C 19,1 C 5,2 km/h
19.07.2012 09:00 22,0 C 71 % 1011,0 hPa 0,0 l/m 0,0 km/h N 16,6 C 22,0 C 0,8 km/h
19.07.2012 10:00 25,9 C 58 % 1010,6 hPa 0,0 l/m 0,0 km/h N 17,0 C 25,9 C 1,6 km/h
19.07.2012 11:00 28,1 C 50 % 1010,0 hPa 0,0 l/m 0,3 km/h N 16,7 C 28,1 C 2,4 km/h
19.07.2012 12:00 30,8 C 43 % 1008,9 hPa 0,0 l/m 3,0 km/h N 16,8 C 30,8 C 12,9 km/h
19.07.2012 13:00 32,2 C 40 % 1008,1 hPa 0,0 l/m 3,4 km/h N 16,8 C 32,2 C 16,5 km/h
19.07.2012 14:00 32,4 C 40 % 1007,5 hPa 0,0 l/m 0,7 km/h N 17,0 C 32,4 C 10,4 km/h
19.07.2012 15:00 32,3 C 38 % 1006,9 hPa 0,0 l/m 0,4 km/h N 16,2 C 32,3 C 5,2 km/h
19.07.2012 16:00 31,0 C 39 % 1006,1 hPa 0,0 l/m 1,7 km/h N 15,3 C 31,0 C 11,2 km/h
19.07.2012 17:00 28,9 C 45 % 1006,4 hPa 0,0 l/m 4,1 km/h N 15,7 C 28,9 C 14,5 km/h
19.07.2012 18:00 22,6 C 72 % 1010,5 hPa 9,9 l/m 3,2 km/h N 17,2 C 22,6 C 14,5 km/h
19.07.2012 19:00 20,7 C 80 % 1010,1 hPa 0,5 l/m 0,4 km/h N 17,0 C 20,7 C 2,8 km/h
19.07.2012 20:00 21,0 C 80 % 1010,2 hPa 0,0 l/m 0,1 km/h N 17,3 C 21,0 C 2,8 km/h
19.07.2012 21:00 20,1 C 80 % 1010,1 hPa 0,0 l/m 0,0 km/h N 16,5 C 20,1 C 0,8 km/h
19.07.2012 22:00 19,4 C 80 % 1010,5 hPa 0,0 l/m 0,0 km/h N 15,9 C 19,4 C 0,8 km/h
19.07.2012 23:00 18,9 C 81 % 1010,6 hPa 0,0 l/m 2,0 km/h N 15,5 C 18,9 C 7,7 km/h
20.07.2012 00:00 20,1 C 77 % 1011,1 hPa 0,0 l/m 2,3 km/h N 15,9 C 20,1 C 16,5 km/h
20.07.2012 01:00 20,0 C 73 % 1012,1 hPa 0,0 l/m 7,7 km/h N 14,9 C 19,2 C 23,8 km/h
20.07.2012 02:00 19,5 C 73 % 1012,2 hPa 0,0 l/m 6,4 km/h N 14,4 C 19,3 C 21,7 km/h
20.07.2012 03:00 19,2 C 68 % 1012,1 hPa 0,0 l/m 2,9 km/h N 13,2 C 19,2 C 17,3 km/h
20.07.2012 04:00 18,5 C 73 % 1012,8 hPa 0,0 l/m 0,2 km/h N 13,5 C 18,5 C 3,2 km/h
20.07.2012 05:00 17,7 C 77 % 1013,3 hPa 0,0 l/m 0,0 km/h N 13,5 C 17,7 C 0,0 km/h
20.07.2012 06:00 17,3 C 80 % 1013,7 hPa 0,0 l/m 0,1 km/h N 13,7 C 17,3 C 1,6 km/h
20.07.2012 07:00 17,5 C 80 % 1014,4 hPa 0,0 l/m 0,0 km/h N 14,0 C 17,5 C 0,8 km/h
20.07.2012 08:00 18,0 C 79 % 1014,8 hPa 0,0 l/m 0,0 km/h N 14,2 C 18,0 C 0,0 km/h
20.07.2012 09:00 18,1 C 80 % 1015,3 hPa 0,3 l/m 0,0 km/h N 14,5 C 18,1 C 2,0 km/h
20.07.2012 10:00 17,9 C 82 % 1015,4 hPa 0,5 l/m 0,1 km/h N 14,7 C 17,9 C 2,4 km/h
20.07.2012 11:00 17,3 C 82 % 1015,4 hPa 0,0 l/m 0,3 km/h N 14,2 C 17,3 C 3,2 km/h
20.07.2012 12:00 17,5 C 82 % 1015,3 hPa 0,0 l/m 0,1 km/h N 14,4 C 17,5 C 2,4 km/h
20.07.2012 13:00 18,2 C 81 % 1015,1 hPa 0,0 l/m 0,4 km/h N 14,9 C 18,2 C 5,6 km/h
20.07.2012 14:00 18,9 C 77 % 1015,0 hPa 0,0 l/m 1,3 km/h N 14,7 C 18,9 C 6,0 km/h
20.07.2012 15:00 19,3 C 77 % 1014,8 hPa 0,0 l/m 0,1 km/h N 15,2 C 19,3 C 1,6 km/h
20.07.2012 16:00 19,3 C 78 % 1014,6 hPa 0,3 l/m 0,0 km/h N 15,4 C 19,3 C 1,2 km/h
20.07.2012 17:00 18,9 C 81 % 1014,4 hPa 0,0 l/m 1,7 km/h N 15,5 C 18,9 C 6,4 km/h
20.07.2012 18:00 18,4 C 82 % 1013,6 hPa 0,0 l/m 0,1 km/h N 15,2 C 18,4 C 1,6 km/h
20.07.2012 19:00 18,1 C 82 % 1013,8 hPa 0,0 l/m 1,2 km/h N 14,9 C 18,1 C 6,4 km/h
20.07.2012 20:00 17,5 C 80 % 1014,3 hPa 3,1 l/m 2,6 km/h N 14,1 C 17,5 C 9,2 km/h
20.07.2012 21:00 16,4 C 80 % 1015,3 hPa 2,6 l/m 2,0 km/h N 12,9 C 16,4 C 6,8 km/h
20.07.2012 22:00 15,9 C 79 % 1015,7 hPa 2,9 l/m 0,1 km/h N 12,2 C 15,9 C 2,8 km/h
20.07.2012 23:00 15,8 C 79 % 1015,4 hPa 2,3 l/m 0,0 km/h N 12,1 C 15,8 C 0,4 km/h
21.07.2012 00:00 15,6 C 78 % 1016,1 hPa 1,6 l/m 0,3 km/h N 11,8 C 15,6 C 2,8 km/h
21.07.2012 01:00 15,5 C 78 % 1016,2 hPa 1,3 l/m 0,1 km/h N 11,7 C 15,5 C 2,0 km/h
21.07.2012 02:00 15,3 C 78 % 1015,9 hPa 1,6 l/m 1,1 km/h N 11,4 C 15,3 C 4,4 km/h
21.07.2012 03:00 15,0 C 78 % 1016,1 hPa 1,6 l/m 0,2 km/h N 11,1 C 15,0 C 1,2 km/h
21.07.2012 04:00 14,9 C 78 % 1016,0 hPa 1,3 l/m 0,0 km/h N 11,0 C 14,9 C 1,6 km/h
21.07.2012 05:00 14,9 C 77 % 1015,9 hPa 1,6 l/m 1,6 km/h N 10,9 C 14,9 C 6,8 km/h
21.07.2012 06:00 14,4 C 77 % 1016,3 hPa 1,6 l/m 1,3 km/h N 10,4 C 14,4 C 6,8 km/h
21.07.2012 07:00 14,4 C 77 % 1016,5 hPa 3,9 l/m 0,5 km/h N 10,4 C 14,4 C 4,4 km/h
21.07.2012 08:00 14,6 C 77 % 1016,9 hPa 4,7 l/m 0,6 km/h N 10,6 C 14,6 C 6,0 km/h
21.07.2012 09:00 15,4 C 78 % 1017,0 hPa 2,3 l/m 4,3 km/h N 11,5 C 15,4 C 11,3 km/h
21.07.2012 10:00 17,1 C 81 % 1016,7 hPa 2,1 l/m 6,5 km/h N 13,9 C 16,9 C 18,5 km/h
21.07.2012 11:00 18,9 C 75 % 1016,5 hPa 0,8 l/m 7,9 km/h N 14,3 C 18,3 C 19,7 km/h
21.07.2012 12:00 18,9 C 71 % 1016,5 hPa 0,3 l/m 6,9 km/h N 13,4 C 18,6 C 18,1 km/h
21.07.2012 13:00 18,7 C 71 % 1016,3 hPa 0,0 l/m 6,9 km/h N 13,4 C 18,3 C 18,1 km/h
21.07.2012 14:00 18,2 C 73 % 1016,5 hPa 0,0 l/m 3,8 km/h N 13,2 C 18,2 C 13,3 km/h
21.07.2012 15:00 18,1 C 72 % 1016,3 hPa 0,0 l/m 2,3 km/h N 12,8 C 18,1 C 10,9 km/h
21.07.2012 16:00 17,6 C 76 % 1016,7 hPa 0,0 l/m 0,7 km/h N 13,4 C 17,6 C 5,6 km/h
21.07.2012 17:00 17,1 C 79 % 1017,1 hPa 0,0 l/m 0,7 km/h N 13,4 C 17,1 C 7,6 km/h
21.07.2012 18:00 16,8 C 79 % 1016,9 hPa 0,0 l/m 2,0 km/h N 13,1 C 16,8 C 12,1 km/h
21.07.2012 19:00 16,7 C 75 % 1017,1 hPa 0,0 l/m 6,2 km/h N 12,2 C 16,3 C 20,1 km/h
21.07.2012 20:00 16,6 C 76 % 1017,6 hPa 0,0 l/m 4,1 km/h N 12,2 C 16,6 C 14,5 km/h
21.07.2012 21:00 16,3 C 78 % 1018,6 hPa 0,0 l/m 3,4 km/h N 12,5 C 16,3 C 9,3 km/h
21.07.2012 22:00 15,7 C 82 % 1019,0 hPa 0,0 l/m 1,0 km/h N 12,6 C 15,7 C 6,4 km/h
21.07.2012 23:00 15,6 C 82 % 1019,0 hPa 0,3 l/m 6,2 km/h N 12,5 C 15,2 C 17,3 km/h
22.07.2012 00:00 15,7 C 80 % 1019,1 hPa 0,3 l/m 9,3 km/h N 12,3 C 14,2 C 22,5 km/h
22.07.2012 01:00 15,4 C 81 % 1019,3 hPa 0,0 l/m 8,0 km/h N 12,2 C 14,6 C 19,7 km/h
22.07.2012 02:00 15,3 C 81 % 1019,3 hPa 0,3 l/m 8,8 km/h N 12,1 C 14,1 C 24,2 km/h
22.07.2012 03:00 15,1 C 80 % 1019,6 hPa 0,0 l/m 8,0 km/h N 11,7 C 14,2 C 19,3 km/h
22.07.2012 04:00 14,7 C 81 % 1019,7 hPa 0,0 l/m 6,4 km/h N 11,4 C 14,3 C 17,7 km/h
22.07.2012 05:00 14,7 C 82 % 1020,2 hPa 0,0 l/m 7,1 km/h N 11,6 C 14,3 C 18,9 km/h
22.07.2012 06:00 14,8 C 82 % 1020,8 hPa 0,0 l/m 7,8 km/h N 11,8 C 14,0 C 21,3 km/h
22.07.2012 07:00 14,8 C 82 % 1021,3 hPa 0,0 l/m 4,0 km/h N 11,8 C 14,8 C 13,3 km/h
22.07.2012 08:00 14,6 C 82 % 1021,8 hPa 0,0 l/m 5,9 km/h N 11,6 C 14,5 C 16,9 km/h
22.07.2012 09:00 13,9 C 83 % 1022,8 hPa 0,3 l/m 6,2 km/h N 10,9 C 13,7 C 16,5 km/h
22.07.2012 10:00 14,1 C 81 % 1023,3 hPa 0,0 l/m 6,3 km/h N 10,9 C 13,9 C 16,9 km/h
22.07.2012 11:00 13,9 C 83 % 1023,8 hPa 0,3 l/m 8,6 km/h N 11,0 C 12,6 C 20,9 km/h
22.07.2012 12:00 14,2 C 81 % 1023,7 hPa 0,0 l/m 9,8 km/h N 10,9 C 12,3 C 22,9 km/h
22.07.2012 13:00 15,3 C 77 % 1023,8 hPa 0,3 l/m 11,4 km/h N 11,2 C 12,9 C 26,6 km/h
22.07.2012 14:00 15,4 C 76 % 1024,0 hPa 0,0 l/m 8,7 km/h N 11,1 C 14,2 C 21,7 km/h
22.07.2012 15:00 17,3 C 72 % 1023,9 hPa 0,3 l/m 10,0 km/h N 12,1 C 15,7 C 22,9 km/h
22.07.2012 16:00 17,4 C 68 % 1024,0 hPa 0,0 l/m 10,1 km/h N 11,5 C 15,8 C 24,1 km/h
22.07.2012 17:00 17,6 C 66 % 1024,0 hPa 0,0 l/m 8,4 km/h N 11,3 C 16,7 C 23,3 km/h
22.07.2012 18:00 17,7 C 64 % 1023,9 hPa 0,0 l/m 8,7 km/h N 10,8 C 16,6 C 20,9 km/h
22.07.2012 19:00 17,4 C 63 % 1024,2 hPa 0,0 l/m 6,9 km/h N 10,2 C 17,1 C 18,9 km/h
22.07.2012 20:00 17,0 C 64 % 1024,6 hPa 0,0 l/m 3,6 km/h N 10,1 C 17,0 C 13,3 km/h
22.07.2012 21:00 15,6 C 68 % 1025,5 hPa 0,0 l/m 2,1 km/h N 9,7 C 15,6 C 10,4 km/h
22.07.2012 22:00 15,0 C 70 % 1026,0 hPa 0,0 l/m 3,7 km/h N 9,5 C 15,0 C 12,5 km/h
22.07.2012 23:00 14,8 C 69 % 1026,3 hPa 0,0 l/m 4,3 km/h N 9,2 C 14,8 C 12,1 km/h
Min-Datum _ 17.07.12 19.07.12 19.07.12 - 16.07.12 - 17.07.12 17.07.12 16.07.12
_ Min-Zeit 01:30 16:45 16:45 - 13:00 - 01:30 01:30 13:00
Minimum _ 10,8 C 36 % 1005,9 hPa - 0,0 km/h - 7,9 C 10,8 C 0,0 km/h
Max-Datum _ 19.07.12 17.07.12 22.07.12 19.07.12 16.07.12 - 19.07.12 19.07.12 16.07.12
_ Max-Zeit 15:00 00:45 23:30 18:15 02:00 - 18:15 15:00 02:00
Maximum _ 32,8 C 83 % 1026,5 hPa 9,9 l/m 18,9 km/h
N
- 17,8 C 32,8 C 40,2 km/h
N
Durchschnitt _ 18,2 C 70 % 1017,8 hPa #48,6 l/m 4,6 km/h N 12,5 C 17,8 C 14,3 km/h